sensor_id;sensor_type;location;lat;lon;timestamp;P1;durP1;ratioP1;P2;durP2;ratioP2
5587;SDS011;2816;49.778;9.986;2023-05-16T00:00:39;5.37;;;4.53;;
5587;SDS011;2816;49.778;9.986;2023-05-16T00:03:06;7.13;;;4.37;;
5587;SDS011;2816;49.778;9.986;2023-05-16T00:05:36;7.20;;;4.87;;
5587;SDS011;2816;49.778;9.986;2023-05-16T00:08:03;7.43;;;4.53;;
5587;SDS011;2816;49.778;9.986;2023-05-16T00:10:32;6.90;;;4.87;;
5587;SDS011;2816;49.778;9.986;2023-05-16T00:12:58;5.37;;;4.87;;
5587;SDS011;2816;49.778;9.986;2023-05-16T00:15:26;9.40;;;4.60;;
5587;SDS011;2816;49.778;9.986;2023-05-16T00:17:53;5.00;;;4.60;;
5587;SDS011;2816;49.778;9.986;2023-05-16T00:20:22;6.60;;;4.77;;
5587;SDS011;2816;49.778;9.986;2023-05-16T00:22:49;5.17;;;4.57;;
5587;SDS011;2816;49.778;9.986;2023-05-16T00:25:16;7.90;;;4.93;;
5587;SDS011;2816;49.778;9.986;2023-05-16T00:27:45;5.43;;;4.43;;
5587;SDS011;2816;49.778;9.986;2023-05-16T00:30:12;7.73;;;4.60;;
5587;SDS011;2816;49.778;9.986;2023-05-16T00:32:39;6.23;;;4.97;;
5587;SDS011;2816;49.778;9.986;2023-05-16T00:35:06;5.30;;;4.80;;
5587;SDS011;2816;49.778;9.986;2023-05-16T00:37:34;4.80;;;4.40;;
5587;SDS011;2816;49.778;9.986;2023-05-16T00:40:02;6.33;;;4.90;;
5587;SDS011;2816;49.778;9.986;2023-05-16T00:42:30;7.77;;;4.83;;
5587;SDS011;2816;49.778;9.986;2023-05-16T00:44:58;5.43;;;4.90;;
5587;SDS011;2816;49.778;9.986;2023-05-16T00:47:25;5.20;;;4.80;;
5587;SDS011;2816;49.778;9.986;2023-05-16T00:49:52;8.30;;;4.90;;
5587;SDS011;2816;49.778;9.986;2023-05-16T00:52:19;9.90;;;5.50;;
5587;SDS011;2816;49.778;9.986;2023-05-16T00:54:46;5.47;;;4.97;;
5587;SDS011;2816;49.778;9.986;2023-05-16T00:57:13;5.03;;;4.40;;
5587;SDS011;2816;49.778;9.986;2023-05-16T00:59:40;5.17;;;4.63;;
5587;SDS011;2816;49.778;9.986;2023-05-16T01:02:09;5.87;;;4.63;;
5587;SDS011;2816;49.778;9.986;2023-05-16T01:04:37;6.83;;;5.27;;
5587;SDS011;2816;49.778;9.986;2023-05-16T01:07:04;5.73;;;4.73;;
5587;SDS011;2816;49.778;9.986;2023-05-16T01:09:31;6.40;;;5.60;;
5587;SDS011;2816;49.778;9.986;2023-05-16T01:12:01;5.20;;;4.70;;
5587;SDS011;2816;49.778;9.986;2023-05-16T01:14:38;4.97;;;4.57;;
5587;SDS011;2816;49.778;9.986;2023-05-16T01:17:14;6.13;;;5.23;;
5587;SDS011;2816;49.778;9.986;2023-05-16T01:19:55;8.57;;;5.83;;
5587;SDS011;2816;49.778;9.986;2023-05-16T01:22:35;6.30;;;5.03;;
5587;SDS011;2816;49.778;9.986;2023-05-16T01:25:15;5.20;;;4.80;;
5587;SDS011;2816;49.778;9.986;2023-05-16T01:27:57;6.00;;;5.40;;
5587;SDS011;2816;49.778;9.986;2023-05-16T01:30:31;5.93;;;5.40;;
5587;SDS011;2816;49.778;9.986;2023-05-16T01:33:02;9.67;;;5.60;;
5587;SDS011;2816;49.778;9.986;2023-05-16T01:35:29;6.00;;;5.43;;
5587;SDS011;2816;49.778;9.986;2023-05-16T01:37:57;5.47;;;4.90;;
5587;SDS011;2816;49.778;9.986;2023-05-16T01:40:35;6.50;;;5.70;;
5587;SDS011;2816;49.778;9.986;2023-05-16T01:43:09;7.97;;;5.20;;
5587;SDS011;2816;49.778;9.986;2023-05-16T01:45:40;6.27;;;5.23;;
5587;SDS011;2816;49.778;9.986;2023-05-16T01:48:14;7.23;;;5.00;;
5587;SDS011;2816;49.778;9.986;2023-05-16T01:50:48;6.60;;;5.43;;
5587;SDS011;2816;49.778;9.986;2023-05-16T01:53:21;6.37;;;4.87;;
5587;SDS011;2816;49.778;9.986;2023-05-16T01:55:52;5.70;;;5.07;;
5587;SDS011;2816;49.778;9.986;2023-05-16T01:58:24;6.73;;;5.70;;
5587;SDS011;2816;49.778;9.986;2023-05-16T02:00:53;5.80;;;5.20;;
5587;SDS011;2816;49.778;9.986;2023-05-16T02:03:25;6.53;;;5.10;;
5587;SDS011;2816;49.778;9.986;2023-05-16T02:05:52;6.30;;;5.60;;
5587;SDS011;2816;49.778;9.986;2023-05-16T02:08:19;5.53;;;5.03;;
5587;SDS011;2816;49.778;9.986;2023-05-16T02:10:46;5.90;;;5.30;;
5587;SDS011;2816;49.778;9.986;2023-05-16T02:13:13;5.83;;;5.23;;
5587;SDS011;2816;49.778;9.986;2023-05-16T02:15:41;6.03;;;5.43;;
5587;SDS011;2816;49.778;9.986;2023-05-16T02:18:08;6.13;;;5.53;;
5587;SDS011;2816;49.778;9.986;2023-05-16T02:20:36;6.00;;;5.40;;
5587;SDS011;2816;49.778;9.986;2023-05-16T02:23:03;7.23;;;4.80;;
5587;SDS011;2816;49.778;9.986;2023-05-16T02:25:30;5.80;;;5.20;;
5587;SDS011;2816;49.778;9.986;2023-05-16T02:27:57;6.07;;;5.47;;
5587;SDS011;2816;49.778;9.986;2023-05-16T02:30:24;6.70;;;6.00;;
5587;SDS011;2816;49.778;9.986;2023-05-16T02:32:52;6.43;;;5.50;;
5587;SDS011;2816;49.778;9.986;2023-05-16T02:35:19;6.03;;;5.53;;
5587;SDS011;2816;49.778;9.986;2023-05-16T02:37:46;6.10;;;5.60;;
5587;SDS011;2816;49.778;9.986;2023-05-16T02:40:14;6.63;;;5.93;;
5587;SDS011;2816;49.778;9.986;2023-05-16T02:42:41;6.67;;;4.97;;
5587;SDS011;2816;49.778;9.986;2023-05-16T02:45:08;6.43;;;5.70;;
5587;SDS011;2816;49.778;9.986;2023-05-16T02:47:36;7.83;;;5.87;;
5587;SDS011;2816;49.778;9.986;2023-05-16T02:50:05;6.20;;;5.60;;
5587;SDS011;2816;49.778;9.986;2023-05-16T02:52:32;8.00;;;6.07;;
5587;SDS011;2816;49.778;9.986;2023-05-16T02:54:59;9.30;;;6.60;;
5587;SDS011;2816;49.778;9.986;2023-05-16T02:57:26;9.83;;;6.73;;
5587;SDS011;2816;49.778;9.986;2023-05-16T02:59:53;12.93;;;5.73;;
5587;SDS011;2816;49.778;9.986;2023-05-16T03:02:20;10.10;;;7.93;;
5587;SDS011;2816;49.778;9.986;2023-05-16T03:04:47;9.43;;;6.33;;
5587;SDS011;2816;49.778;9.986;2023-05-16T03:07:15;8.40;;;5.33;;
5587;SDS011;2816;49.778;9.986;2023-05-16T03:09:43;7.70;;;6.97;;
5587;SDS011;2816;49.778;9.986;2023-05-16T03:12:09;7.30;;;6.60;;
5587;SDS011;2816;49.778;9.986;2023-05-16T03:14:37;10.23;;;6.67;;
5587;SDS011;2816;49.778;9.986;2023-05-16T03:17:03;8.10;;;7.30;;
5587;SDS011;2816;49.778;9.986;2023-05-16T03:19:30;6.37;;;5.63;;
5587;SDS011;2816;49.778;9.986;2023-05-16T03:21:57;17.10;;;8.33;;
5587;SDS011;2816;49.778;9.986;2023-05-16T03:24:25;11.60;;;7.20;;
5587;SDS011;2816;49.778;9.986;2023-05-16T03:26:52;7.30;;;6.30;;
5587;SDS011;2816;49.778;9.986;2023-05-16T03:29:20;13.00;;;6.70;;
5587;SDS011;2816;49.778;9.986;2023-05-16T03:31:47;9.33;;;6.40;;
5587;SDS011;2816;49.778;9.986;2023-05-16T03:34:14;7.17;;;5.73;;
5587;SDS011;2816;49.778;9.986;2023-05-16T03:36:41;7.17;;;6.47;;
5587;SDS011;2816;49.778;9.986;2023-05-16T03:39:08;11.67;;;8.33;;
5587;SDS011;2816;49.778;9.986;2023-05-16T03:41:36;7.43;;;5.90;;
5587;SDS011;2816;49.778;9.986;2023-05-16T03:44:03;7.30;;;6.20;;
5587;SDS011;2816;49.778;9.986;2023-05-16T03:46:30;8.50;;;7.07;;
5587;SDS011;2816;49.778;9.986;2023-05-16T03:48:57;6.83;;;6.00;;
5587;SDS011;2816;49.778;9.986;2023-05-16T03:51:24;10.57;;;8.30;;
5587;SDS011;2816;49.778;9.986;2023-05-16T03:53:52;9.33;;;8.40;;
5587;SDS011;2816;49.778;9.986;2023-05-16T03:56:19;12.47;;;7.83;;
5587;SDS011;2816;49.778;9.986;2023-05-16T03:58:48;11.33;;;7.93;;
5587;SDS011;2816;49.778;9.986;2023-05-16T04:01:15;14.33;;;9.53;;
5587;SDS011;2816;49.778;9.986;2023-05-16T04:03:42;13.10;;;9.33;;
5587;SDS011;2816;49.778;9.986;2023-05-16T04:06:09;11.70;;;9.97;;
5587;SDS011;2816;49.778;9.986;2023-05-16T04:08:35;10.10;;;9.07;;
5587;SDS011;2816;49.778;9.986;2023-05-16T04:11:03;10.47;;;8.80;;
5587;SDS011;2816;49.778;9.986;2023-05-16T04:13:30;10.23;;;8.90;;
5587;SDS011;2816;49.778;9.986;2023-05-16T04:15:59;12.27;;;9.30;;
5587;SDS011;2816;49.778;9.986;2023-05-16T04:18:25;11.80;;;9.87;;
5587;SDS011;2816;49.778;9.986;2023-05-16T04:20:52;9.10;;;8.20;;
5587;SDS011;2816;49.778;9.986;2023-05-16T04:23:19;9.83;;;7.50;;
5587;SDS011;2816;49.778;9.986;2023-05-16T04:25:46;18.63;;;9.40;;
5587;SDS011;2816;49.778;9.986;2023-05-16T04:28:14;11.03;;;8.83;;
5587;SDS011;2816;49.778;9.986;2023-05-16T04:30:42;10.37;;;9.27;;
5587;SDS011;2816;49.778;9.986;2023-05-16T04:33:10;10.37;;;8.43;;
5587;SDS011;2816;49.778;9.986;2023-05-16T04:35:37;9.37;;;8.13;;
5587;SDS011;2816;49.778;9.986;2023-05-16T04:38:04;13.57;;;10.20;;
5587;SDS011;2816;49.778;9.986;2023-05-16T04:40:31;16.60;;;10.17;;
5587;SDS011;2816;49.778;9.986;2023-05-16T04:42:59;15.90;;;9.87;;
5587;SDS011;2816;49.778;9.986;2023-05-16T04:45:26;17.90;;;11.33;;
5587;SDS011;2816;49.778;9.986;2023-05-16T04:47:53;13.43;;;9.33;;
5587;SDS011;2816;49.778;9.986;2023-05-16T04:50:21;12.00;;;9.80;;
5587;SDS011;2816;49.778;9.986;2023-05-16T04:52:48;12.50;;;8.40;;
5587;SDS011;2816;49.778;9.986;2023-05-16T04:55:15;11.70;;;10.50;;
5587;SDS011;2816;49.778;9.986;2023-05-16T04:57:42;8.90;;;8.00;;
5587;SDS011;2816;49.778;9.986;2023-05-16T05:00:09;11.60;;;8.60;;
5587;SDS011;2816;49.778;9.986;2023-05-16T05:02:37;11.30;;;9.40;;
5587;SDS011;2816;49.778;9.986;2023-05-16T05:05:05;13.30;;;8.70;;
5587;SDS011;2816;49.778;9.986;2023-05-16T05:07:34;10.37;;;8.57;;
5587;SDS011;2816;49.778;9.986;2023-05-16T05:10:01;10.47;;;8.60;;
5587;SDS011;2816;49.778;9.986;2023-05-16T05:12:28;10.70;;;7.63;;
5587;SDS011;2816;49.778;9.986;2023-05-16T05:14:54;10.07;;;8.30;;
5587;SDS011;2816;49.778;9.986;2023-05-16T05:17:21;10.00;;;8.20;;
5587;SDS011;2816;49.778;9.986;2023-05-16T05:19:48;8.63;;;7.83;;
5587;SDS011;2816;49.778;9.986;2023-05-16T05:22:15;12.67;;;7.60;;
5587;SDS011;2816;49.778;9.986;2023-05-16T05:24:44;14.00;;;7.07;;
5587;SDS011;2816;49.778;9.986;2023-05-16T05:27:11;9.53;;;7.10;;
5587;SDS011;2816;49.778;9.986;2023-05-16T05:29:37;9.60;;;7.77;;
5587;SDS011;2816;49.778;9.986;2023-05-16T05:32:05;10.63;;;8.17;;
5587;SDS011;2816;49.778;9.986;2023-05-16T05:34:32;11.10;;;7.47;;
5587;SDS011;2816;49.778;9.986;2023-05-16T05:36:59;13.00;;;8.77;;
5587;SDS011;2816;49.778;9.986;2023-05-16T05:39:26;11.53;;;8.93;;
5587;SDS011;2816;49.778;9.986;2023-05-16T05:41:54;11.63;;;9.00;;
5587;SDS011;2816;49.778;9.986;2023-05-16T05:44:22;10.90;;;8.30;;
5587;SDS011;2816;49.778;9.986;2023-05-16T05:46:49;16.33;;;9.30;;
5587;SDS011;2816;49.778;9.986;2023-05-16T05:49:16;11.60;;;8.37;;
5587;SDS011;2816;49.778;9.986;2023-05-16T05:51:43;14.40;;;7.53;;
5587;SDS011;2816;49.778;9.986;2023-05-16T05:54:10;14.17;;;7.93;;
5587;SDS011;2816;49.778;9.986;2023-05-16T05:56:37;9.70;;;7.37;;
5587;SDS011;2816;49.778;9.986;2023-05-16T05:59:05;8.23;;;6.97;;
5587;SDS011;2816;49.778;9.986;2023-05-16T06:01:32;11.23;;;8.80;;
5587;SDS011;2816;49.778;9.986;2023-05-16T06:03:59;8.30;;;7.47;;
5587;SDS011;2816;49.778;9.986;2023-05-16T06:06:26;15.40;;;10.20;;
5587;SDS011;2816;49.778;9.986;2023-05-16T06:08:53;11.00;;;7.07;;
5587;SDS011;2816;49.778;9.986;2023-05-16T06:11:20;11.43;;;8.63;;
5587;SDS011;2816;49.778;9.986;2023-05-16T06:13:47;10.60;;;8.00;;
5587;SDS011;2816;49.778;9.986;2023-05-16T06:16:15;10.00;;;7.73;;
5587;SDS011;2816;49.778;9.986;2023-05-16T06:18:42;11.43;;;8.83;;
5587;SDS011;2816;49.778;9.986;2023-05-16T06:21:10;13.90;;;8.47;;
5587;SDS011;2816;49.778;9.986;2023-05-16T06:23:36;11.30;;;9.47;;
5587;SDS011;2816;49.778;9.986;2023-05-16T06:26:03;13.53;;;9.10;;
5587;SDS011;2816;49.778;9.986;2023-05-16T06:28:30;19.10;;;9.00;;
5587;SDS011;2816;49.778;9.986;2023-05-16T06:30:57;12.30;;;8.27;;
5587;SDS011;2816;49.778;9.986;2023-05-16T06:33:25;11.47;;;9.97;;
5587;SDS011;2816;49.778;9.986;2023-05-16T06:35:52;11.80;;;8.70;;
5587;SDS011;2816;49.778;9.986;2023-05-16T06:38:19;16.47;;;10.27;;
5587;SDS011;2816;49.778;9.986;2023-05-16T06:40:46;11.73;;;9.80;;
5587;SDS011;2816;49.778;9.986;2023-05-16T06:43:13;12.43;;;10.20;;
5587;SDS011;2816;49.778;9.986;2023-05-16T06:45:40;15.07;;;9.90;;
5587;SDS011;2816;49.778;9.986;2023-05-16T06:48:07;12.40;;;10.47;;
5587;SDS011;2816;49.778;9.986;2023-05-16T06:50:35;17.10;;;11.00;;
5587;SDS011;2816;49.778;9.986;2023-05-16T06:53:02;12.70;;;9.40;;
5587;SDS011;2816;49.778;9.986;2023-05-16T06:55:31;17.23;;;8.83;;
5587;SDS011;2816;49.778;9.986;2023-05-16T06:57:58;18.13;;;11.23;;
5587;SDS011;2816;49.778;9.986;2023-05-16T07:00:25;17.00;;;11.20;;
5587;SDS011;2816;49.778;9.986;2023-05-16T07:02:52;11.63;;;9.47;;
5587;SDS011;2816;49.778;9.986;2023-05-16T07:05:19;14.13;;;12.60;;
5587;SDS011;2816;49.778;9.986;2023-05-16T07:07:49;13.93;;;10.00;;
5587;SDS011;2816;49.778;9.986;2023-05-16T07:10:15;21.07;;;10.73;;
5587;SDS011;2816;49.778;9.986;2023-05-16T07:12:42;11.83;;;9.13;;
5587;SDS011;2816;49.778;9.986;2023-05-16T07:15:10;13.83;;;10.47;;
5587;SDS011;2816;49.778;9.986;2023-05-16T07:17:37;15.87;;;10.30;;
5587;SDS011;2816;49.778;9.986;2023-05-16T07:20:04;14.07;;;11.03;;
5587;SDS011;2816;49.778;9.986;2023-05-16T07:22:32;17.03;;;13.20;;
5587;SDS011;2816;49.778;9.986;2023-05-16T07:25:01;16.00;;;11.73;;
5587;SDS011;2816;49.778;9.986;2023-05-16T07:27:28;16.03;;;11.60;;
5587;SDS011;2816;49.778;9.986;2023-05-16T07:29:56;15.73;;;11.67;;
5587;SDS011;2816;49.778;9.986;2023-05-16T07:32:23;14.03;;;11.07;;
5587;SDS011;2816;49.778;9.986;2023-05-16T07:34:49;13.27;;;9.53;;
5587;SDS011;2816;49.778;9.986;2023-05-16T07:37:16;13.70;;;11.47;;
5587;SDS011;2816;49.778;9.986;2023-05-16T07:39:44;17.90;;;11.70;;
5587;SDS011;2816;49.778;9.986;2023-05-16T07:42:12;14.70;;;11.70;;
5587;SDS011;2816;49.778;9.986;2023-05-16T07:44:39;14.70;;;11.30;;
5587;SDS011;2816;49.778;9.986;2023-05-16T07:47:06;10.63;;;9.53;;
5587;SDS011;2816;49.778;9.986;2023-05-16T07:49:33;11.00;;;8.73;;
5587;SDS011;2816;49.778;9.986;2023-05-16T07:52:00;12.93;;;10.53;;
5587;SDS011;2816;49.778;9.986;2023-05-16T07:54:27;12.80;;;10.33;;
5587;SDS011;2816;49.778;9.986;2023-05-16T07:56:54;12.63;;;9.63;;
5587;SDS011;2816;49.778;9.986;2023-05-16T07:59:22;12.50;;;10.00;;
5587;SDS011;2816;49.778;9.986;2023-05-16T08:01:50;17.23;;;11.63;;
5587;SDS011;2816;49.778;9.986;2023-05-16T08:04:17;11.73;;;10.53;;
5587;SDS011;2816;49.778;9.986;2023-05-16T08:06:44;12.50;;;10.37;;
5587;SDS011;2816;49.778;9.986;2023-05-16T08:09:11;12.10;;;10.73;;
5587;SDS011;2816;49.778;9.986;2023-05-16T08:11:38;16.10;;;9.87;;
5587;SDS011;2816;49.778;9.986;2023-05-16T08:14:05;13.07;;;10.40;;
5587;SDS011;2816;49.778;9.986;2023-05-16T08:16:34;10.47;;;9.37;;
5587;SDS011;2816;49.778;9.986;2023-05-16T08:19:01;14.83;;;9.77;;
5587;SDS011;2816;49.778;9.986;2023-05-16T08:21:27;23.60;;;11.93;;
5587;SDS011;2816;49.778;9.986;2023-05-16T08:23:55;11.70;;;10.10;;
5587;SDS011;2816;49.778;9.986;2023-05-16T08:26:22;12.73;;;9.03;;
5587;SDS011;2816;49.778;9.986;2023-05-16T08:28:50;13.63;;;9.77;;
5587;SDS011;2816;49.778;9.986;2023-05-16T08:31:17;9.80;;;8.73;;
5587;SDS011;2816;49.778;9.986;2023-05-16T08:33:46;11.80;;;9.80;;
5587;SDS011;2816;49.778;9.986;2023-05-16T08:36:13;14.30;;;9.60;;
5587;SDS011;2816;49.778;9.986;2023-05-16T08:38:42;14.20;;;10.10;;
5587;SDS011;2816;49.778;9.986;2023-05-16T08:41:09;10.73;;;9.03;;
5587;SDS011;2816;49.778;9.986;2023-05-16T08:43:36;10.70;;;8.77;;
5587;SDS011;2816;49.778;9.986;2023-05-16T08:46:03;10.73;;;8.43;;
5587;SDS011;2816;49.778;9.986;2023-05-16T08:48:32;10.50;;;9.40;;
5587;SDS011;2816;49.778;9.986;2023-05-16T08:51:02;10.03;;;9.03;;
5587;SDS011;2816;49.778;9.986;2023-05-16T08:53:35;13.13;;;9.53;;
5587;SDS011;2816;49.778;9.986;2023-05-16T08:56:05;9.30;;;8.03;;
5587;SDS011;2816;49.778;9.986;2023-05-16T08:58:33;17.13;;;10.50;;
5587;SDS011;2816;49.778;9.986;2023-05-16T09:01:02;11.97;;;9.90;;
5587;SDS011;2816;49.778;9.986;2023-05-16T09:03:32;14.50;;;10.70;;
5587;SDS011;2816;49.778;9.986;2023-05-16T09:06:00;15.43;;;9.23;;
5587;SDS011;2816;49.778;9.986;2023-05-16T09:08:30;18.13;;;10.43;;
5587;SDS011;2816;49.778;9.986;2023-05-16T09:10:57;13.70;;;10.10;;
5587;SDS011;2816;49.778;9.986;2023-05-16T09:13:24;16.50;;;9.90;;
5587;SDS011;2816;49.778;9.986;2023-05-16T09:18:33;13.40;;;8.43;;
5587;SDS011;2816;49.778;9.986;2023-05-16T09:21:02;9.50;;;7.83;;
5587;SDS011;2816;49.778;9.986;2023-05-16T09:23:30;12.23;;;7.53;;
5587;SDS011;2816;49.778;9.986;2023-05-16T09:25:58;10.23;;;7.37;;
5587;SDS011;2816;49.778;9.986;2023-05-16T09:28:25;8.17;;;7.37;;
5587;SDS011;2816;49.778;9.986;2023-05-16T09:30:52;9.97;;;7.07;;
5587;SDS011;2816;49.778;9.986;2023-05-16T09:33:23;11.10;;;7.70;;
5587;SDS011;2816;49.778;9.986;2023-05-16T09:35:55;8.10;;;7.30;;
5587;SDS011;2816;49.778;9.986;2023-05-16T09:38:25;11.30;;;6.60;;
5587;SDS011;2816;49.778;9.986;2023-05-16T09:40:53;8.30;;;6.40;;
5587;SDS011;2816;49.778;9.986;2023-05-16T09:43:21;8.27;;;7.10;;
5587;SDS011;2816;49.778;9.986;2023-05-16T09:45:51;8.17;;;6.70;;
5587;SDS011;2816;49.778;9.986;2023-05-16T09:48:19;8.37;;;7.23;;
5587;SDS011;2816;49.778;9.986;2023-05-16T09:50:48;11.30;;;6.30;;
5587;SDS011;2816;49.778;9.986;2023-05-16T09:53:17;9.70;;;8.10;;
5587;SDS011;2816;49.778;9.986;2023-05-16T09:55:56;9.97;;;6.80;;
5587;SDS011;2816;49.778;9.986;2023-05-16T09:58:27;12.30;;;6.87;;
5587;SDS011;2816;49.778;9.986;2023-05-16T10:00:55;13.20;;;7.77;;
5587;SDS011;2816;49.778;9.986;2023-05-16T10:03:23;9.30;;;7.30;;
5587;SDS011;2816;49.778;9.986;2023-05-16T10:05:51;7.93;;;6.40;;
5587;SDS011;2816;49.778;9.986;2023-05-16T10:08:19;9.30;;;6.43;;
5587;SDS011;2816;49.778;9.986;2023-05-16T10:10:47;7.57;;;6.10;;
5587;SDS011;2816;49.778;9.986;2023-05-16T10:13:19;10.30;;;7.27;;
5587;SDS011;2816;49.778;9.986;2023-05-16T10:15:47;13.30;;;8.97;;
5587;SDS011;2816;49.778;9.986;2023-05-16T10:18:16;10.37;;;7.10;;
5587;SDS011;2816;49.778;9.986;2023-05-16T10:20:44;10.73;;;9.63;;
5587;SDS011;2816;49.778;9.986;2023-05-16T10:23:15;10.40;;;6.90;;
5587;SDS011;2816;49.778;9.986;2023-05-16T10:25:44;9.07;;;6.10;;
5587;SDS011;2816;49.778;9.986;2023-05-16T10:28:12;8.50;;;6.13;;
5587;SDS011;2816;49.778;9.986;2023-05-16T10:30:42;8.10;;;5.70;;
5587;SDS011;2816;49.778;9.986;2023-05-16T10:33:10;8.17;;;5.40;;
5587;SDS011;2816;49.778;9.986;2023-05-16T10:35:38;5.97;;;4.80;;
5587;SDS011;2816;49.778;9.986;2023-05-16T10:38:06;6.17;;;4.63;;
5587;SDS011;2816;49.778;9.986;2023-05-16T10:40:35;5.57;;;4.00;;
5587;SDS011;2816;49.778;9.986;2023-05-16T10:43:04;4.43;;;3.60;;
5587;SDS011;2816;49.778;9.986;2023-05-16T10:45:33;4.27;;;3.87;;
5587;SDS011;2816;49.778;9.986;2023-05-16T10:48:03;8.23;;;5.23;;
5587;SDS011;2816;49.778;9.986;2023-05-16T10:50:31;4.63;;;3.93;;
5587;SDS011;2816;49.778;9.986;2023-05-16T10:53:15;3.93;;;3.53;;
5587;SDS011;2816;49.778;9.986;2023-05-16T10:55:50;4.67;;;3.70;;
5587;SDS011;2816;49.778;9.986;2023-05-16T10:58:42;4.10;;;3.40;;
5587;SDS011;2816;49.778;9.986;2023-05-16T11:01:13;4.97;;;3.70;;
5587;SDS011;2816;49.778;9.986;2023-05-16T11:04:03;4.80;;;3.67;;
5587;SDS011;2816;49.778;9.986;2023-05-16T11:06:31;10.73;;;3.53;;
5587;SDS011;2816;49.778;9.986;2023-05-16T11:09:05;3.77;;;3.37;;
5587;SDS011;2816;49.778;9.986;2023-05-16T11:11:38;3.80;;;3.13;;
5587;SDS011;2816;49.778;9.986;2023-05-16T11:14:06;3.90;;;3.50;;
5587;SDS011;2816;49.778;9.986;2023-05-16T11:16:33;3.80;;;3.10;;
5587;SDS011;2816;49.778;9.986;2023-05-16T11:19:05;3.70;;;2.83;;
5587;SDS011;2816;49.778;9.986;2023-05-16T11:24:31;3.20;;;2.77;;
5587;SDS011;2816;49.778;9.986;2023-05-16T11:27:00;2.70;;;2.47;;
5587;SDS011;2816;49.778;9.986;2023-05-16T11:29:29;2.10;;;1.90;;
5587;SDS011;2816;49.778;9.986;2023-05-16T11:31:57;8.00;;;2.10;;
5587;SDS011;2816;49.778;9.986;2023-05-16T11:34:26;2.00;;;1.90;;
5587;SDS011;2816;49.778;9.986;2023-05-16T11:36:53;2.70;;;1.57;;
5587;SDS011;2816;49.778;9.986;2023-05-16T11:39:20;10.93;;;2.90;;
5587;SDS011;2816;49.778;9.986;2023-05-16T11:41:48;2.10;;;1.80;;
5587;SDS011;2816;49.778;9.986;2023-05-16T11:44:15;3.13;;;1.60;;
5587;SDS011;2816;49.778;9.986;2023-05-16T11:46:42;1.73;;;1.57;;
5587;SDS011;2816;49.778;9.986;2023-05-16T11:49:09;2.30;;;1.40;;
5587;SDS011;2816;49.778;9.986;2023-05-16T11:51:38;5.03;;;1.40;;
5587;SDS011;2816;49.778;9.986;2023-05-16T11:54:06;3.53;;;1.60;;
5587;SDS011;2816;49.778;9.986;2023-05-16T11:56:34;2.30;;;1.70;;
5587;SDS011;2816;49.778;9.986;2023-05-16T11:59:02;3.93;;;1.47;;
5587;SDS011;2816;49.778;9.986;2023-05-16T12:01:32;2.03;;;1.80;;
5587;SDS011;2816;49.778;9.986;2023-05-16T12:04:01;2.60;;;1.20;;
5587;SDS011;2816;49.778;9.986;2023-05-16T12:06:32;4.77;;;1.60;;
5587;SDS011;2816;49.778;9.986;2023-05-16T12:09:01;1.80;;;1.37;;
5587;SDS011;2816;49.778;9.986;2023-05-16T12:11:34;3.47;;;1.70;;
5587;SDS011;2816;49.778;9.986;2023-05-16T12:14:01;5.90;;;1.40;;
5587;SDS011;2816;49.778;9.986;2023-05-16T12:16:29;1.63;;;1.40;;
5587;SDS011;2816;49.778;9.986;2023-05-16T12:18:56;1.60;;;1.50;;
5587;SDS011;2816;49.778;9.986;2023-05-16T12:21:24;4.70;;;1.43;;
5587;SDS011;2816;49.778;9.986;2023-05-16T12:23:52;5.03;;;1.30;;
5587;SDS011;2816;49.778;9.986;2023-05-16T12:26:25;2.60;;;1.50;;
5587;SDS011;2816;49.778;9.986;2023-05-16T12:28:55;5.67;;;2.00;;
5587;SDS011;2816;49.778;9.986;2023-05-16T12:31:27;3.83;;;1.53;;
5587;SDS011;2816;49.778;9.986;2023-05-16T12:33:54;2.60;;;1.43;;
5587;SDS011;2816;49.778;9.986;2023-05-16T12:36:22;1.37;;;1.20;;
5587;SDS011;2816;49.778;9.986;2023-05-16T12:38:50;2.93;;;1.30;;
5587;SDS011;2816;49.778;9.986;2023-05-16T12:41:18;4.83;;;1.70;;
5587;SDS011;2816;49.778;9.986;2023-05-16T12:43:47;4.33;;;2.17;;
5587;SDS011;2816;49.778;9.986;2023-05-16T12:46:14;2.87;;;1.67;;
5587;SDS011;2816;49.778;9.986;2023-05-16T12:48:42;2.00;;;1.43;;
5587;SDS011;2816;49.778;9.986;2023-05-16T12:51:10;1.67;;;1.40;;
5587;SDS011;2816;49.778;9.986;2023-05-16T12:53:42;3.70;;;1.77;;
5587;SDS011;2816;49.778;9.986;2023-05-16T12:56:10;1.70;;;1.60;;
5587;SDS011;2816;49.778;9.986;2023-05-16T12:58:39;2.10;;;1.50;;
5587;SDS011;2816;49.778;9.986;2023-05-16T13:01:08;2.97;;;1.77;;
5587;SDS011;2816;49.778;9.986;2023-05-16T13:03:35;5.90;;;1.87;;
5587;SDS011;2816;49.778;9.986;2023-05-16T13:06:02;5.47;;;1.77;;
5587;SDS011;2816;49.778;9.986;2023-05-16T13:08:30;3.63;;;1.70;;
5587;SDS011;2816;49.778;9.986;2023-05-16T13:10:57;2.10;;;1.50;;
5587;SDS011;2816;49.778;9.986;2023-05-16T13:13:24;3.53;;;1.50;;
5587;SDS011;2816;49.778;9.986;2023-05-16T13:15:50;3.23;;;1.83;;
5587;SDS011;2816;49.778;9.986;2023-05-16T13:18:19;2.77;;;1.70;;
5587;SDS011;2816;49.778;9.986;2023-05-16T13:20:46;3.27;;;1.53;;
5587;SDS011;2816;49.778;9.986;2023-05-16T13:23:13;8.87;;;2.37;;
5587;SDS011;2816;49.778;9.986;2023-05-16T13:25:40;3.77;;;1.70;;
5587;SDS011;2816;49.778;9.986;2023-05-16T13:28:07;3.30;;;1.80;;
5587;SDS011;2816;49.778;9.986;2023-05-16T13:30:35;3.30;;;1.60;;
5587;SDS011;2816;49.778;9.986;2023-05-16T13:33:02;1.73;;;1.40;;
5587;SDS011;2816;49.778;9.986;2023-05-16T13:35:30;3.73;;;1.70;;
5587;SDS011;2816;49.778;9.986;2023-05-16T13:37:57;4.47;;;1.90;;
5587;SDS011;2816;49.778;9.986;2023-05-16T13:40:24;1.93;;;1.60;;
5587;SDS011;2816;49.778;9.986;2023-05-16T13:42:51;5.30;;;1.67;;
5587;SDS011;2816;49.778;9.986;2023-05-16T13:45:18;2.47;;;1.80;;
5587;SDS011;2816;49.778;9.986;2023-05-16T13:47:46;3.10;;;1.70;;
5587;SDS011;2816;49.778;9.986;2023-05-16T13:50:12;6.13;;;2.03;;
5587;SDS011;2816;49.778;9.986;2023-05-16T13:52:41;6.73;;;2.10;;
5587;SDS011;2816;49.778;9.986;2023-05-16T13:55:08;4.60;;;1.73;;
5587;SDS011;2816;49.778;9.986;2023-05-16T13:57:35;5.67;;;2.17;;
5587;SDS011;2816;49.778;9.986;2023-05-16T14:00:02;7.50;;;2.93;;
5587;SDS011;2816;49.778;9.986;2023-05-16T14:02:36;11.83;;;2.10;;
5587;SDS011;2816;49.778;9.986;2023-05-16T14:05:03;6.00;;;2.10;;
5587;SDS011;2816;49.778;9.986;2023-05-16T14:07:31;3.63;;;2.10;;
5587;SDS011;2816;49.778;9.986;2023-05-16T14:09:59;4.37;;;2.00;;
5587;SDS011;2816;49.778;9.986;2023-05-16T14:12:26;7.20;;;2.17;;
5587;SDS011;2816;49.778;9.986;2023-05-16T14:14:53;2.13;;;1.53;;
5587;SDS011;2816;49.778;9.986;2023-05-16T14:17:20;3.47;;;1.80;;
5587;SDS011;2816;49.778;9.986;2023-05-16T14:19:47;6.83;;;2.17;;
5587;SDS011;2816;49.778;9.986;2023-05-16T14:22:14;5.37;;;2.10;;
5587;SDS011;2816;49.778;9.986;2023-05-16T14:24:42;5.60;;;2.20;;
5587;SDS011;2816;49.778;9.986;2023-05-16T14:27:11;9.07;;;2.53;;
5587;SDS011;2816;49.778;9.986;2023-05-16T14:29:39;6.50;;;1.80;;
5587;SDS011;2816;49.778;9.986;2023-05-16T14:32:06;5.53;;;2.10;;
5587;SDS011;2816;49.778;9.986;2023-05-16T14:34:34;11.50;;;2.43;;
5587;SDS011;2816;49.778;9.986;2023-05-16T14:37:01;5.30;;;2.23;;
5587;SDS011;2816;49.778;9.986;2023-05-16T14:39:28;6.27;;;2.00;;
5587;SDS011;2816;49.778;9.986;2023-05-16T14:41:55;7.47;;;2.03;;
5587;SDS011;2816;49.778;9.986;2023-05-16T14:44:23;5.93;;;2.03;;
5587;SDS011;2816;49.778;9.986;2023-05-16T14:46:50;5.43;;;2.60;;
5587;SDS011;2816;49.778;9.986;2023-05-16T14:49:17;5.33;;;1.93;;
5587;SDS011;2816;49.778;9.986;2023-05-16T14:51:44;11.63;;;2.13;;
5587;SDS011;2816;49.778;9.986;2023-05-16T14:54:13;3.10;;;2.03;;
5587;SDS011;2816;49.778;9.986;2023-05-16T14:56:40;4.30;;;2.17;;
5587;SDS011;2816;49.778;9.986;2023-05-16T14:59:07;9.10;;;2.13;;
5587;SDS011;2816;49.778;9.986;2023-05-16T15:01:35;10.13;;;2.20;;
5587;SDS011;2816;49.778;9.986;2023-05-16T15:04:02;5.63;;;1.93;;
5587;SDS011;2816;49.778;9.986;2023-05-16T15:06:29;4.23;;;1.70;;
5587;SDS011;2816;49.778;9.986;2023-05-16T15:08:56;3.60;;;1.90;;
5587;SDS011;2816;49.778;9.986;2023-05-16T15:11:23;8.07;;;1.97;;
5587;SDS011;2816;49.778;9.986;2023-05-16T15:13:50;14.83;;;2.60;;
5587;SDS011;2816;49.778;9.986;2023-05-16T15:16:18;4.53;;;1.77;;
5587;SDS011;2816;49.778;9.986;2023-05-16T15:18:46;5.73;;;2.40;;